sensor_id;sensor_type;location;lat;lon;timestamp;P1;durP1;ratioP1;P2;durP2;ratioP2
77495;SDS011;66600;48.378;9.948;2024-01-27T00:00:14;8.75;;;2.30;;
77495;SDS011;66600;48.378;9.948;2024-01-27T00:00:45;7.97;;;1.85;;
77495;SDS011;66600;48.378;9.948;2024-01-27T00:01:16;3.90;;;1.83;;
77495;SDS011;66600;48.378;9.948;2024-01-27T00:01:46;5.35;;;1.77;;
77495;SDS011;66600;48.378;9.948;2024-01-27T00:02:16;5.13;;;1.90;;
77495;SDS011;66600;48.378;9.948;2024-01-27T00:02:47;6.97;;;2.10;;
77495;SDS011;66600;48.378;9.948;2024-01-27T00:03:17;5.63;;;1.70;;
77495;SDS011;66600;48.378;9.948;2024-01-27T00:03:47;7.07;;;1.92;;
77495;SDS011;66600;48.378;9.948;2024-01-27T00:04:18;5.22;;;2.10;;
77495;SDS011;66600;48.378;9.948;2024-01-27T00:04:48;6.93;;;1.80;;
77495;SDS011;66600;48.378;9.948;2024-01-27T00:05:18;5.55;;;1.90;;
77495;SDS011;66600;48.378;9.948;2024-01-27T00:05:49;4.35;;;2.10;;
77495;SDS011;66600;48.378;9.948;2024-01-27T00:06:19;5.68;;;1.48;;
77495;SDS011;66600;48.378;9.948;2024-01-27T00:06:49;5.70;;;1.80;;
77495;SDS011;66600;48.378;9.948;2024-01-27T00:07:20;4.38;;;1.70;;
77495;SDS011;66600;48.378;9.948;2024-01-27T00:07:50;5.90;;;1.80;;
77495;SDS011;66600;48.378;9.948;2024-01-27T00:08:20;3.70;;;1.80;;
77495;SDS011;66600;48.378;9.948;2024-01-27T00:08:51;3.67;;;2.10;;
77495;SDS011;66600;48.378;9.948;2024-01-27T00:09:22;6.65;;;2.80;;
77495;SDS011;66600;48.378;9.948;2024-01-27T00:09:52;6.75;;;2.05;;
77495;SDS011;66600;48.378;9.948;2024-01-27T00:10:23;5.63;;;2.15;;
77495;SDS011;66600;48.378;9.948;2024-01-27T00:10:53;5.28;;;1.90;;
77495;SDS011;66600;48.378;9.948;2024-01-27T00:11:23;5.68;;;2.13;;
77495;SDS011;66600;48.378;9.948;2024-01-27T00:11:54;6.25;;;2.13;;
77495;SDS011;66600;48.378;9.948;2024-01-27T00:12:25;5.78;;;2.28;;
77495;SDS011;66600;48.378;9.948;2024-01-27T00:12:55;6.82;;;2.03;;
77495;SDS011;66600;48.378;9.948;2024-01-27T00:13:26;4.15;;;2.10;;
77495;SDS011;66600;48.378;9.948;2024-01-27T00:13:56;4.90;;;1.88;;
77495;SDS011;66600;48.378;9.948;2024-01-27T00:14:27;6.13;;;1.90;;
77495;SDS011;66600;48.378;9.948;2024-01-27T00:14:58;4.18;;;1.88;;
77495;SDS011;66600;48.378;9.948;2024-01-27T00:15:28;7.72;;;1.90;;
77495;SDS011;66600;48.378;9.948;2024-01-27T00:15:58;5.07;;;1.90;;
77495;SDS011;66600;48.378;9.948;2024-01-27T00:16:29;4.28;;;1.90;;
77495;SDS011;66600;48.378;9.948;2024-01-27T00:16:59;3.63;;;1.75;;
77495;SDS011;66600;48.378;9.948;2024-01-27T00:17:29;5.95;;;2.65;;
77495;SDS011;66600;48.378;9.948;2024-01-27T00:18:00;4.55;;;1.83;;
77495;SDS011;66600;48.378;9.948;2024-01-27T00:18:30;2.80;;;1.60;;
77495;SDS011;66600;48.378;9.948;2024-01-27T00:19:00;5.88;;;2.08;;
77495;SDS011;66600;48.378;9.948;2024-01-27T00:19:31;6.03;;;2.10;;
77495;SDS011;66600;48.378;9.948;2024-01-27T00:20:01;4.38;;;2.03;;
77495;SDS011;66600;48.378;9.948;2024-01-27T00:20:32;5.93;;;2.15;;
77495;SDS011;66600;48.378;9.948;2024-01-27T00:21:03;8.25;;;2.40;;
77495;SDS011;66600;48.378;9.948;2024-01-27T00:21:34;6.50;;;2.00;;
77495;SDS011;66600;48.378;9.948;2024-01-27T00:22:04;6.57;;;2.08;;
77495;SDS011;66600;48.378;9.948;2024-01-27T00:22:35;5.70;;;1.80;;
77495;SDS011;66600;48.378;9.948;2024-01-27T00:23:05;4.97;;;1.92;;
77495;SDS011;66600;48.378;9.948;2024-01-27T00:23:36;5.97;;;2.20;;
77495;SDS011;66600;48.378;9.948;2024-01-27T00:24:06;5.65;;;2.17;;
77495;SDS011;66600;48.378;9.948;2024-01-27T00:24:37;8.07;;;2.25;;
77495;SDS011;66600;48.378;9.948;2024-01-27T00:25:07;7.25;;;2.08;;
77495;SDS011;66600;48.378;9.948;2024-01-27T00:25:38;7.40;;;2.20;;
77495;SDS011;66600;48.378;9.948;2024-01-27T00:26:08;9.13;;;1.80;;
77495;SDS011;66600;48.378;9.948;2024-01-27T00:26:38;4.63;;;1.90;;
77495;SDS011;66600;48.378;9.948;2024-01-27T00:27:09;8.27;;;2.10;;
77495;SDS011;66600;48.378;9.948;2024-01-27T00:27:39;8.23;;;2.10;;
77495;SDS011;66600;48.378;9.948;2024-01-27T00:28:09;8.75;;;2.08;;
77495;SDS011;66600;48.378;9.948;2024-01-27T00:28:40;6.00;;;2.00;;
77495;SDS011;66600;48.378;9.948;2024-01-27T00:29:10;8.25;;;1.70;;
77495;SDS011;66600;48.378;9.948;2024-01-27T00:29:41;3.97;;;1.90;;
77495;SDS011;66600;48.378;9.948;2024-01-27T00:30:11;7.07;;;2.35;;
77495;SDS011;66600;48.378;9.948;2024-01-27T00:30:41;9.20;;;2.20;;
77495;SDS011;66600;48.378;9.948;2024-01-27T00:31:12;4.32;;;1.85;;
77495;SDS011;66600;48.378;9.948;2024-01-27T00:31:42;5.40;;;1.80;;
77495;SDS011;66600;48.378;9.948;2024-01-27T00:32:13;7.68;;;2.20;;
77495;SDS011;66600;48.378;9.948;2024-01-27T00:32:43;8.10;;;2.17;;
77495;SDS011;66600;48.378;9.948;2024-01-27T00:33:13;7.88;;;2.15;;
77495;SDS011;66600;48.378;9.948;2024-01-27T00:33:44;7.95;;;1.90;;
77495;SDS011;66600;48.378;9.948;2024-01-27T00:34:14;6.10;;;1.63;;
77495;SDS011;66600;48.378;9.948;2024-01-27T00:34:45;8.27;;;2.10;;
77495;SDS011;66600;48.378;9.948;2024-01-27T00:35:15;4.80;;;1.77;;
77495;SDS011;66600;48.378;9.948;2024-01-27T00:35:46;4.88;;;2.10;;
77495;SDS011;66600;48.378;9.948;2024-01-27T00:36:16;7.03;;;2.03;;
77495;SDS011;66600;48.378;9.948;2024-01-27T00:36:46;4.57;;;1.70;;
77495;SDS011;66600;48.378;9.948;2024-01-27T00:37:18;6.28;;;1.75;;
77495;SDS011;66600;48.378;9.948;2024-01-27T00:37:49;6.95;;;2.05;;
77495;SDS011;66600;48.378;9.948;2024-01-27T00:38:20;6.22;;;2.10;;
77495;SDS011;66600;48.378;9.948;2024-01-27T00:38:50;5.75;;;1.92;;
77495;SDS011;66600;48.378;9.948;2024-01-27T00:39:20;5.18;;;1.85;;
77495;SDS011;66600;48.378;9.948;2024-01-27T00:39:51;8.63;;;2.20;;
77495;SDS011;66600;48.378;9.948;2024-01-27T00:40:22;5.20;;;1.83;;
77495;SDS011;66600;48.378;9.948;2024-01-27T00:40:52;6.70;;;2.03;;
77495;SDS011;66600;48.378;9.948;2024-01-27T00:41:23;6.13;;;1.70;;
77495;SDS011;66600;48.378;9.948;2024-01-27T00:41:53;7.70;;;1.92;;
77495;SDS011;66600;48.378;9.948;2024-01-27T00:42:25;6.45;;;1.80;;
77495;SDS011;66600;48.378;9.948;2024-01-27T00:42:55;5.53;;;1.75;;
77495;SDS011;66600;48.378;9.948;2024-01-27T00:43:26;7.93;;;1.75;;
77495;SDS011;66600;48.378;9.948;2024-01-27T00:43:56;5.20;;;1.70;;
77495;SDS011;66600;48.378;9.948;2024-01-27T00:44:27;7.05;;;2.53;;
77495;SDS011;66600;48.378;9.948;2024-01-27T00:44:57;4.93;;;2.00;;
77495;SDS011;66600;48.378;9.948;2024-01-27T00:45:27;5.50;;;1.80;;
77495;SDS011;66600;48.378;9.948;2024-01-27T00:45:59;5.70;;;1.98;;
77495;SDS011;66600;48.378;9.948;2024-01-27T00:46:30;4.78;;;2.08;;
77495;SDS011;66600;48.378;9.948;2024-01-27T00:47:00;5.53;;;2.17;;
77495;SDS011;66600;48.378;9.948;2024-01-27T00:47:30;6.00;;;1.90;;
77495;SDS011;66600;48.378;9.948;2024-01-27T00:48:01;5.70;;;1.90;;
77495;SDS011;66600;48.378;9.948;2024-01-27T00:48:32;7.22;;;2.28;;
77495;SDS011;66600;48.378;9.948;2024-01-27T00:49:02;6.55;;;1.80;;
77495;SDS011;66600;48.378;9.948;2024-01-27T00:49:32;5.72;;;1.88;;
77495;SDS011;66600;48.378;9.948;2024-01-27T00:50:03;6.57;;;2.05;;
77495;SDS011;66600;48.378;9.948;2024-01-27T00:50:34;5.88;;;2.10;;
77495;SDS011;66600;48.378;9.948;2024-01-27T00:51:04;8.48;;;2.15;;
77495;SDS011;66600;48.378;9.948;2024-01-27T00:51:34;7.18;;;1.98;;
77495;SDS011;66600;48.378;9.948;2024-01-27T00:52:05;6.60;;;1.95;;
77495;SDS011;66600;48.378;9.948;2024-01-27T00:52:35;6.63;;;1.85;;
77495;SDS011;66600;48.378;9.948;2024-01-27T00:53:05;8.25;;;2.08;;
77495;SDS011;66600;48.378;9.948;2024-01-27T00:53:36;6.85;;;2.00;;
77495;SDS011;66600;48.378;9.948;2024-01-27T00:54:06;3.65;;;1.90;;
77495;SDS011;66600;48.378;9.948;2024-01-27T00:54:37;5.80;;;1.90;;
77495;SDS011;66600;48.378;9.948;2024-01-27T00:55:07;6.05;;;1.95;;
77495;SDS011;66600;48.378;9.948;2024-01-27T00:55:38;5.85;;;2.10;;
77495;SDS011;66600;48.378;9.948;2024-01-27T00:56:08;9.07;;;2.50;;
77495;SDS011;66600;48.378;9.948;2024-01-27T00:56:39;5.40;;;2.08;;
77495;SDS011;66600;48.378;9.948;2024-01-27T00:57:09;5.32;;;2.10;;
77495;SDS011;66600;48.378;9.948;2024-01-27T00:57:40;6.88;;;2.30;;
77495;SDS011;66600;48.378;9.948;2024-01-27T00:58:11;8.00;;;2.10;;
77495;SDS011;66600;48.378;9.948;2024-01-27T00:58:41;4.53;;;2.00;;
77495;SDS011;66600;48.378;9.948;2024-01-27T00:59:11;9.43;;;2.03;;
77495;SDS011;66600;48.378;9.948;2024-01-27T00:59:42;5.78;;;1.90;;
77495;SDS011;66600;48.378;9.948;2024-01-27T01:00:13;8.48;;;2.33;;
77495;SDS011;66600;48.378;9.948;2024-01-27T01:00:44;4.82;;;2.17;;
77495;SDS011;66600;48.378;9.948;2024-01-27T01:01:14;6.18;;;2.25;;
77495;SDS011;66600;48.378;9.948;2024-01-27T01:01:45;5.93;;;1.92;;
77495;SDS011;66600;48.378;9.948;2024-01-27T01:02:15;6.72;;;2.10;;
77495;SDS011;66600;48.378;9.948;2024-01-27T01:02:45;5.20;;;2.05;;
77495;SDS011;66600;48.378;9.948;2024-01-27T01:03:16;6.88;;;2.47;;
77495;SDS011;66600;48.378;9.948;2024-01-27T01:03:46;5.72;;;1.92;;
77495;SDS011;66600;48.378;9.948;2024-01-27T01:04:16;5.63;;;1.92;;
77495;SDS011;66600;48.378;9.948;2024-01-27T01:04:47;6.63;;;2.42;;
77495;SDS011;66600;48.378;9.948;2024-01-27T01:05:18;6.85;;;2.00;;
77495;SDS011;66600;48.378;9.948;2024-01-27T01:05:48;7.85;;;2.28;;
77495;SDS011;66600;48.378;9.948;2024-01-27T01:06:18;4.38;;;2.03;;
77495;SDS011;66600;48.378;9.948;2024-01-27T01:06:49;5.25;;;2.03;;
77495;SDS011;66600;48.378;9.948;2024-01-27T01:07:20;6.75;;;2.38;;
77495;SDS011;66600;48.378;9.948;2024-01-27T01:07:50;6.78;;;2.25;;
77495;SDS011;66600;48.378;9.948;2024-01-27T01:08:20;6.68;;;2.45;;
77495;SDS011;66600;48.378;9.948;2024-01-27T01:08:51;5.75;;;2.30;;
77495;SDS011;66600;48.378;9.948;2024-01-27T01:09:21;8.82;;;2.10;;
77495;SDS011;66600;48.378;9.948;2024-01-27T01:09:51;7.80;;;2.42;;
77495;SDS011;66600;48.378;9.948;2024-01-27T01:10:22;7.57;;;2.10;;
77495;SDS011;66600;48.378;9.948;2024-01-27T01:10:52;6.47;;;2.55;;
77495;SDS011;66600;48.378;9.948;2024-01-27T01:11:23;4.40;;;2.10;;
77495;SDS011;66600;48.378;9.948;2024-01-27T01:11:53;8.82;;;2.40;;
77495;SDS011;66600;48.378;9.948;2024-01-27T01:12:23;5.03;;;2.38;;
77495;SDS011;66600;48.378;9.948;2024-01-27T01:12:55;6.35;;;2.30;;
77495;SDS011;66600;48.378;9.948;2024-01-27T01:13:25;6.68;;;2.53;;
77495;SDS011;66600;48.378;9.948;2024-01-27T01:13:56;5.10;;;2.50;;
77495;SDS011;66600;48.378;9.948;2024-01-27T01:14:26;5.63;;;2.00;;
77495;SDS011;66600;48.378;9.948;2024-01-27T01:14:56;6.78;;;2.50;;
77495;SDS011;66600;48.378;9.948;2024-01-27T01:15:27;4.93;;;2.22;;
77495;SDS011;66600;48.378;9.948;2024-01-27T01:15:57;8.43;;;3.28;;
77495;SDS011;66600;48.378;9.948;2024-01-27T01:16:28;8.10;;;2.63;;
77495;SDS011;66600;48.378;9.948;2024-01-27T01:16:58;8.23;;;2.40;;
77495;SDS011;66600;48.378;9.948;2024-01-27T01:17:28;6.25;;;2.40;;
77495;SDS011;66600;48.378;9.948;2024-01-27T01:17:59;6.70;;;2.35;;
77495;SDS011;66600;48.378;9.948;2024-01-27T01:18:29;3.92;;;2.30;;
77495;SDS011;66600;48.378;9.948;2024-01-27T01:19:00;7.97;;;2.60;;
77495;SDS011;66600;48.378;9.948;2024-01-27T01:19:30;11.40;;;2.88;;
77495;SDS011;66600;48.378;9.948;2024-01-27T01:20:01;5.82;;;2.30;;
77495;SDS011;66600;48.378;9.948;2024-01-27T01:20:31;5.68;;;2.30;;
77495;SDS011;66600;48.378;9.948;2024-01-27T01:21:02;9.63;;;2.42;;
77495;SDS011;66600;48.378;9.948;2024-01-27T01:21:33;6.68;;;2.38;;
77495;SDS011;66600;48.378;9.948;2024-01-27T01:22:04;6.20;;;2.42;;
77495;SDS011;66600;48.378;9.948;2024-01-27T01:22:35;5.30;;;2.35;;
77495;SDS011;66600;48.378;9.948;2024-01-27T01:23:05;3.53;;;1.88;;
77495;SDS011;66600;48.378;9.948;2024-01-27T01:23:36;9.95;;;2.80;;
77495;SDS011;66600;48.378;9.948;2024-01-27T01:24:06;10.50;;;2.65;;
77495;SDS011;66600;48.378;9.948;2024-01-27T01:24:37;8.05;;;3.00;;
77495;SDS011;66600;48.378;9.948;2024-01-27T01:25:08;6.30;;;2.25;;
77495;SDS011;66600;48.378;9.948;2024-01-27T01:25:38;5.43;;;2.30;;
77495;SDS011;66600;48.378;9.948;2024-01-27T01:26:09;5.65;;;2.42;;
77495;SDS011;66600;48.378;9.948;2024-01-27T01:26:39;7.55;;;2.72;;
77495;SDS011;66600;48.378;9.948;2024-01-27T01:27:09;5.75;;;2.75;;
77495;SDS011;66600;48.378;9.948;2024-01-27T01:27:40;5.47;;;2.75;;
77495;SDS011;66600;48.378;9.948;2024-01-27T01:28:10;8.95;;;2.60;;
77495;SDS011;66600;48.378;9.948;2024-01-27T01:28:40;5.22;;;2.60;;
77495;SDS011;66600;48.378;9.948;2024-01-27T01:29:11;6.10;;;2.65;;
77495;SDS011;66600;48.378;9.948;2024-01-27T01:29:41;4.95;;;2.28;;
77495;SDS011;66600;48.378;9.948;2024-01-27T01:30:11;9.30;;;2.65;;
77495;SDS011;66600;48.378;9.948;2024-01-27T01:30:42;7.88;;;2.70;;
77495;SDS011;66600;48.378;9.948;2024-01-27T01:31:12;7.00;;;2.80;;
77495;SDS011;66600;48.378;9.948;2024-01-27T01:31:43;5.65;;;3.00;;
77495;SDS011;66600;48.378;9.948;2024-01-27T01:32:13;8.65;;;2.95;;
77495;SDS011;66600;48.378;9.948;2024-01-27T01:32:43;7.32;;;2.83;;
77495;SDS011;66600;48.378;9.948;2024-01-27T01:33:14;6.43;;;2.60;;
77495;SDS011;66600;48.378;9.948;2024-01-27T01:33:44;6.43;;;2.65;;
77495;SDS011;66600;48.378;9.948;2024-01-27T01:34:15;8.25;;;2.95;;
77495;SDS011;66600;48.378;9.948;2024-01-27T01:34:45;7.75;;;3.10;;
77495;SDS011;66600;48.378;9.948;2024-01-27T01:35:18;6.25;;;2.78;;
77495;SDS011;66600;48.378;9.948;2024-01-27T01:35:48;7.50;;;2.70;;
77495;SDS011;66600;48.378;9.948;2024-01-27T01:36:18;7.47;;;2.85;;
77495;SDS011;66600;48.378;9.948;2024-01-27T01:36:49;5.45;;;2.60;;
77495;SDS011;66600;48.378;9.948;2024-01-27T01:37:19;9.55;;;3.00;;
77495;SDS011;66600;48.378;9.948;2024-01-27T01:37:50;10.65;;;3.83;;
77495;SDS011;66600;48.378;9.948;2024-01-27T01:38:20;6.93;;;2.75;;
77495;SDS011;66600;48.378;9.948;2024-01-27T01:38:50;6.10;;;2.80;;
77495;SDS011;66600;48.378;9.948;2024-01-27T01:39:21;6.80;;;2.75;;
77495;SDS011;66600;48.378;9.948;2024-01-27T01:39:51;8.32;;;2.85;;
77495;SDS011;66600;48.378;9.948;2024-01-27T01:40:21;6.40;;;2.83;;
77495;SDS011;66600;48.378;9.948;2024-01-27T01:40:52;5.65;;;2.90;;
77495;SDS011;66600;48.378;9.948;2024-01-27T01:41:22;6.43;;;2.90;;
77495;SDS011;66600;48.378;9.948;2024-01-27T01:41:53;6.97;;;2.85;;
77495;SDS011;66600;48.378;9.948;2024-01-27T01:42:23;8.25;;;3.05;;
77495;SDS011;66600;48.378;9.948;2024-01-27T01:42:54;7.68;;;3.08;;
77495;SDS011;66600;48.378;9.948;2024-01-27T01:43:25;6.82;;;2.90;;
77495;SDS011;66600;48.378;9.948;2024-01-27T01:43:55;6.28;;;3.05;;
77495;SDS011;66600;48.378;9.948;2024-01-27T01:44:28;5.90;;;2.67;;
77495;SDS011;66600;48.378;9.948;2024-01-27T01:45:00;5.80;;;2.85;;
77495;SDS011;66600;48.378;9.948;2024-01-27T01:45:31;9.80;;;3.15;;
77495;SDS011;66600;48.378;9.948;2024-01-27T01:46:01;6.53;;;2.50;;
77495;SDS011;66600;48.378;9.948;2024-01-27T01:46:33;5.35;;;2.80;;
77495;SDS011;66600;48.378;9.948;2024-01-27T01:47:04;6.00;;;2.92;;
77495;SDS011;66600;48.378;9.948;2024-01-27T01:47:34;5.75;;;2.90;;
77495;SDS011;66600;48.378;9.948;2024-01-27T01:48:05;7.10;;;3.20;;
77495;SDS011;66600;48.378;9.948;2024-01-27T01:48:37;5.53;;;2.50;;
77495;SDS011;66600;48.378;9.948;2024-01-27T01:49:07;7.20;;;3.00;;
77495;SDS011;66600;48.378;9.948;2024-01-27T01:49:38;6.13;;;3.17;;
77495;SDS011;66600;48.378;9.948;2024-01-27T01:50:08;6.50;;;3.08;;
77495;SDS011;66600;48.378;9.948;2024-01-27T01:50:39;7.03;;;2.88;;
77495;SDS011;66600;48.378;9.948;2024-01-27T01:51:09;9.60;;;2.95;;
77495;SDS011;66600;48.378;9.948;2024-01-27T01:51:40;4.68;;;2.88;;
77495;SDS011;66600;48.378;9.948;2024-01-27T01:52:11;6.57;;;2.85;;
77495;SDS011;66600;48.378;9.948;2024-01-27T01:52:41;6.43;;;3.05;;
77495;SDS011;66600;48.378;9.948;2024-01-27T01:53:12;9.32;;;3.28;;
77495;SDS011;66600;48.378;9.948;2024-01-27T01:53:43;7.82;;;3.05;;
77495;SDS011;66600;48.378;9.948;2024-01-27T01:54:17;9.52;;;3.38;;
77495;SDS011;66600;48.378;9.948;2024-01-27T01:54:49;7.90;;;2.90;;
77495;SDS011;66600;48.378;9.948;2024-01-27T01:55:20;6.70;;;3.05;;
77495;SDS011;66600;48.378;9.948;2024-01-27T01:55:51;6.93;;;3.10;;
77495;SDS011;66600;48.378;9.948;2024-01-27T01:56:23;7.00;;;3.25;;
77495;SDS011;66600;48.378;9.948;2024-01-27T01:56:54;6.45;;;3.00;;
77495;SDS011;66600;48.378;9.948;2024-01-27T01:57:25;9.88;;;3.28;;
77495;SDS011;66600;48.378;9.948;2024-01-27T01:57:56;5.40;;;3.08;;
77495;SDS011;66600;48.378;9.948;2024-01-27T01:58:26;4.20;;;2.92;;
77495;SDS011;66600;48.378;9.948;2024-01-27T01:59:04;4.43;;;2.70;;
77495;SDS011;66600;48.378;9.948;2024-01-27T01:59:34;7.72;;;3.20;;
77495;SDS011;66600;48.378;9.948;2024-01-27T02:00:10;7.07;;;2.90;;
77495;SDS011;66600;48.378;9.948;2024-01-27T02:00:41;6.72;;;2.97;;
77495;SDS011;66600;48.378;9.948;2024-01-27T02:01:12;7.68;;;3.30;;
77495;SDS011;66600;48.378;9.948;2024-01-27T02:01:42;8.13;;;3.30;;
77495;SDS011;66600;48.378;9.948;2024-01-27T02:02:13;6.38;;;2.92;;
77495;SDS011;66600;48.378;9.948;2024-01-27T02:02:44;11.18;;;4.22;;
77495;SDS011;66600;48.378;9.948;2024-01-27T02:03:15;7.05;;;3.22;;
77495;SDS011;66600;48.378;9.948;2024-01-27T02:03:54;10.38;;;3.63;;
77495;SDS011;66600;48.378;9.948;2024-01-27T02:04:25;7.03;;;3.03;;
77495;SDS011;66600;48.378;9.948;2024-01-27T02:04:55;7.03;;;3.22;;
77495;SDS011;66600;48.378;9.948;2024-01-27T02:05:26;7.47;;;3.05;;
77495;SDS011;66600;48.378;9.948;2024-01-27T02:05:56;5.93;;;3.15;;
77495;SDS011;66600;48.378;9.948;2024-01-27T02:06:26;7.18;;;3.20;;
77495;SDS011;66600;48.378;9.948;2024-01-27T02:06:57;8.18;;;3.50;;
77495;SDS011;66600;48.378;9.948;2024-01-27T02:07:27;5.75;;;3.22;;
77495;SDS011;66600;48.378;9.948;2024-01-27T02:07:57;8.23;;;3.35;;
77495;SDS011;66600;48.378;9.948;2024-01-27T02:08:30;7.15;;;3.35;;
77495;SDS011;66600;48.378;9.948;2024-01-27T02:09:00;7.43;;;3.22;;
77495;SDS011;66600;48.378;9.948;2024-01-27T02:09:30;8.90;;;3.65;;
77495;SDS011;66600;48.378;9.948;2024-01-27T02:10:01;6.10;;;3.10;;
77495;SDS011;66600;48.378;9.948;2024-01-27T02:10:32;6.35;;;3.45;;
77495;SDS011;66600;48.378;9.948;2024-01-27T02:11:06;6.95;;;3.20;;
77495;SDS011;66600;48.378;9.948;2024-01-27T02:11:36;6.68;;;3.45;;
77495;SDS011;66600;48.378;9.948;2024-01-27T02:12:07;9.20;;;3.78;;
77495;SDS011;66600;48.378;9.948;2024-01-27T02:12:37;7.35;;;3.40;;
77495;SDS011;66600;48.378;9.948;2024-01-27T02:13:20;10.23;;;3.58;;
77495;SDS011;66600;48.378;9.948;2024-01-27T02:13:52;7.60;;;3.78;;
77495;SDS011;66600;48.378;9.948;2024-01-27T02:14:23;10.70;;;3.47;;
77495;SDS011;66600;48.378;9.948;2024-01-27T02:14:55;7.10;;;3.00;;
77495;SDS011;66600;48.378;9.948;2024-01-27T02:15:25;7.55;;;3.40;;
77495;SDS011;66600;48.378;9.948;2024-01-27T02:15:56;8.80;;;3.95;;
77495;SDS011;66600;48.378;9.948;2024-01-27T02:16:26;8.00;;;3.42;;
77495;SDS011;66600;48.378;9.948;2024-01-27T02:16:57;11.02;;;4.43;;
77495;SDS011;66600;48.378;9.948;2024-01-27T02:17:27;9.13;;;3.80;;
77495;SDS011;66600;48.378;9.948;2024-01-27T02:17:58;8.80;;;4.05;;
77495;SDS011;66600;48.378;9.948;2024-01-27T02:18:28;7.93;;;3.67;;
77495;SDS011;66600;48.378;9.948;2024-01-27T02:18:59;6.68;;;3.55;;
77495;SDS011;66600;48.378;9.948;2024-01-27T02:19:29;8.40;;;3.60;;
77495;SDS011;66600;48.378;9.948;2024-01-27T02:20:00;8.23;;;3.63;;
77495;SDS011;66600;48.378;9.948;2024-01-27T02:20:30;8.15;;;3.78;;
77495;SDS011;66600;48.378;9.948;2024-01-27T02:21:01;6.50;;;3.42;;
77495;SDS011;66600;48.378;9.948;2024-01-27T02:21:31;9.30;;;3.42;;
77495;SDS011;66600;48.378;9.948;2024-01-27T02:22:01;7.97;;;3.83;;
77495;SDS011;66600;48.378;9.948;2024-01-27T02:22:35;9.77;;;3.50;;
77495;SDS011;66600;48.378;9.948;2024-01-27T02:23:06;8.60;;;4.30;;
77495;SDS011;66600;48.378;9.948;2024-01-27T02:23:36;8.00;;;3.47;;
77495;SDS011;66600;48.378;9.948;2024-01-27T02:24:07;8.93;;;3.85;;
77495;SDS011;66600;48.378;9.948;2024-01-27T02:24:37;9.63;;;4.40;;
77495;SDS011;66600;48.378;9.948;2024-01-27T02:25:08;8.23;;;3.90;;
77495;SDS011;66600;48.378;9.948;2024-01-27T02:25:38;15.32;;;4.30;;
77495;SDS011;66600;48.378;9.948;2024-01-27T02:26:09;10.85;;;3.85;;
77495;SDS011;66600;48.378;9.948;2024-01-27T02:26:39;10.60;;;4.13;;
77495;SDS011;66600;48.378;9.948;2024-01-27T02:27:09;8.60;;;4.13;;
77495;SDS011;66600;48.378;9.948;2024-01-27T02:27:40;10.70;;;4.13;;
77495;SDS011;66600;48.378;9.948;2024-01-27T02:28:10;11.73;;;4.25;;
77495;SDS011;66600;48.378;9.948;2024-01-27T02:28:42;12.23;;;4.13;;
77495;SDS011;66600;48.378;9.948;2024-01-27T02:29:13;9.45;;;4.00;;
77495;SDS011;66600;48.378;9.948;2024-01-27T02:29:43;8.52;;;3.83;;
77495;SDS011;66600;48.378;9.948;2024-01-27T02:30:13;9.95;;;4.10;;
77495;SDS011;66600;48.378;9.948;2024-01-27T02:30:44;6.15;;;3.53;;
77495;SDS011;66600;48.378;9.948;2024-01-27T02:31:14;8.75;;;4.57;;
77495;SDS011;66600;48.378;9.948;2024-01-27T02:31:45;10.15;;;4.40;;
77495;SDS011;66600;48.378;9.948;2024-01-27T02:32:15;8.32;;;4.35;;
77495;SDS011;66600;48.378;9.948;2024-01-27T02:32:45;7.38;;;4.47;;
77495;SDS011;66600;48.378;9.948;2024-01-27T02:33:16;7.68;;;3.97;;
77495;SDS011;66600;48.378;9.948;2024-01-27T02:33:46;6.82;;;3.97;;
77495;SDS011;66600;48.378;9.948;2024-01-27T02:34:17;9.82;;;4.10;;
77495;SDS011;66600;48.378;9.948;2024-01-27T02:34:47;8.98;;;4.32;;
77495;SDS011;66600;48.378;9.948;2024-01-27T02:35:17;8.05;;;4.20;;
77495;SDS011;66600;48.378;9.948;2024-01-27T02:35:48;10.20;;;4.13;;
77495;SDS011;66600;48.378;9.948;2024-01-27T02:36:18;10.43;;;4.55;;
77495;SDS011;66600;48.378;9.948;2024-01-27T02:36:48;9.65;;;3.90;;
77495;SDS011;66600;48.378;9.948;2024-01-27T02:37:19;11.88;;;4.32;;
77495;SDS011;66600;48.378;9.948;2024-01-27T02:37:49;8.77;;;4.07;;
77495;SDS011;66600;48.378;9.948;2024-01-27T02:38:20;10.05;;;4.60;;
77495;SDS011;66600;48.378;9.948;2024-01-27T02:38:50;8.63;;;4.10;;
77495;SDS011;66600;48.378;9.948;2024-01-27T02:39:21;9.27;;;4.25;;
77495;SDS011;66600;48.378;9.948;2024-01-27T02:39:51;9.45;;;3.85;;
77495;SDS011;66600;48.378;9.948;2024-01-27T02:40:22;9.95;;;4.15;;
77495;SDS011;66600;48.378;9.948;2024-01-27T02:40:52;6.78;;;3.75;;
77495;SDS011;66600;48.378;9.948;2024-01-27T02:41:22;8.20;;;4.45;;
77495;SDS011;66600;48.378;9.948;2024-01-27T02:41:53;11.27;;;4.00;;
77495;SDS011;66600;48.378;9.948;2024-01-27T02:42:24;14.55;;;4.53;;
77495;SDS011;66600;48.378;9.948;2024-01-27T02:42:54;10.35;;;3.95;;
77495;SDS011;66600;48.378;9.948;2024-01-27T02:43:25;9.45;;;4.20;;
77495;SDS011;66600;48.378;9.948;2024-01-27T02:43:55;7.75;;;4.00;;
77495;SDS011;66600;48.378;9.948;2024-01-27T02:44:25;8.95;;;4.32;;
77495;SDS011;66600;48.378;9.948;2024-01-27T02:44:56;9.57;;;3.92;;
77495;SDS011;66600;48.378;9.948;2024-01-27T02:45:26;7.57;;;4.05;;
77495;SDS011;66600;48.378;9.948;2024-01-27T02:45:57;7.68;;;4.10;;
77495;SDS011;66600;48.378;9.948;2024-01-27T02:46:27;7.70;;;3.80;;
77495;SDS011;66600;48.378;9.948;2024-01-27T02:46:58;11.30;;;4.28;;
77495;SDS011;66600;48.378;9.948;2024-01-27T02:47:28;11.15;;;4.18;;
77495;SDS011;66600;48.378;9.948;2024-01-27T02:47:58;11.05;;;4.18;;
77495;SDS011;66600;48.378;9.948;2024-01-27T02:48:29;9.55;;;4.00;;
77495;SDS011;66600;48.378;9.948;2024-01-27T02:48:59;7.15;;;3.97;;
77495;SDS011;66600;48.378;9.948;2024-01-27T02:49:29;10.50;;;4.07;;
77495;SDS011;66600;48.378;9.948;2024-01-27T02:50:00;8.93;;;4.03;;
77495;SDS011;66600;48.378;9.948;2024-01-27T02:50:30;7.72;;;4.10;;
77495;SDS011;66600;48.378;9.948;2024-01-27T02:51:03;10.80;;;4.72;;
77495;SDS011;66600;48.378;9.948;2024-01-27T02:51:34;9.40;;;4.43;;
77495;SDS011;66600;48.378;9.948;2024-01-27T02:52:04;13.23;;;4.63;;
77495;SDS011;66600;48.378;9.948;2024-01-27T02:52:35;9.75;;;4.57;;
77495;SDS011;66600;48.378;9.948;2024-01-27T02:53:05;11.02;;;4.28;;
77495;SDS011;66600;48.378;9.948;2024-01-27T02:53:35;7.43;;;4.10;;
77495;SDS011;66600;48.378;9.948;2024-01-27T02:54:06;12.80;;;4.32;;
77495;SDS011;66600;48.378;9.948;2024-01-27T02:54:36;8.30;;;4.50;;
77495;SDS011;66600;48.378;9.948;2024-01-27T02:55:07;9.75;;;4.47;;
77495;SDS011;66600;48.378;9.948;2024-01-27T02:55:37;9.35;;;4.72;;
77495;SDS011;66600;48.378;9.948;2024-01-27T02:56:08;11.32;;;4.35;;
77495;SDS011;66600;48.378;9.948;2024-01-27T02:56:38;9.98;;;4.28;;
77495;SDS011;66600;48.378;9.948;2024-01-27T02:57:09;10.48;;;4.25;;
77495;SDS011;66600;48.378;9.948;2024-01-27T02:57:42;10.52;;;4.93;;
77495;SDS011;66600;48.378;9.948;2024-01-27T02:58:12;8.38;;;3.70;;
77495;SDS011;66600;48.378;9.948;2024-01-27T02:58:43;7.70;;;4.13;;
77495;SDS011;66600;48.378;9.948;2024-01-27T02:59:13;9.65;;;4.10;;
77495;SDS011;66600;48.378;9.948;2024-01-27T02:59:46;11.63;;;4.60;;
77495;SDS011;66600;48.378;9.948;2024-01-27T03:00:17;9.63;;;4.80;;
77495;SDS011;66600;48.378;9.948;2024-01-27T03:00:47;12.13;;;4.80;;
77495;SDS011;66600;48.378;9.948;2024-01-27T03:01:18;11.93;;;4.63;;
77495;SDS011;66600;48.378;9.948;2024-01-27T03:01:48;9.98;;;5.00;;
77495;SDS011;66600;48.378;9.948;2024-01-27T03:02:18;10.48;;;4.55;;
77495;SDS011;66600;48.378;9.948;2024-01-27T03:02:49;9.63;;;4.88;;
77495;SDS011;66600;48.378;9.948;2024-01-27T03:03:19;10.65;;;4.07;;
77495;SDS011;66600;48.378;9.948;2024-01-27T03:03:50;10.57;;;4.97;;
77495;SDS011;66600;48.378;9.948;2024-01-27T03:04:20;10.27;;;4.85;;